createdAt,value
2023-04-17T00:00:50.518Z,7.60
2023-04-17T00:03:21.888Z,7.70
2023-04-17T00:05:54.193Z,7.70
2023-04-17T00:08:25.580Z,7.70
2023-04-17T00:11:06.507Z,7.70
2023-04-17T00:13:29.489Z,7.70
2023-04-17T00:16:00.637Z,7.70
2023-04-17T00:18:31.706Z,7.70
2023-04-17T00:21:02.751Z,7.80
2023-04-17T00:23:33.960Z,7.80
2023-04-17T00:26:04.818Z,7.70
2023-04-17T00:28:36.644Z,7.70
2023-04-17T00:31:07.906Z,7.80
2023-04-17T00:33:39.070Z,7.80
2023-04-17T00:36:13.802Z,7.80
2023-04-17T00:38:44.917Z,7.80
2023-04-17T00:41:15.869Z,7.80
2023-04-17T00:43:46.984Z,7.80
2023-04-17T00:46:18.201Z,7.80
2023-04-17T00:48:50.111Z,7.80
2023-04-17T00:51:21.148Z,7.70
2023-04-17T00:53:52.995Z,7.60
2023-04-17T00:56:24.268Z,7.60
2023-04-17T00:58:56.259Z,7.60
2023-04-17T01:01:27.450Z,7.70
2023-04-17T01:04:00.161Z,7.70
2023-04-17T01:06:31.842Z,7.70
2023-04-17T01:09:03.039Z,7.70
2023-04-17T01:11:34.280Z,7.80
2023-04-17T01:14:05.288Z,7.80
2023-04-17T01:16:37.817Z,7.80
2023-04-17T01:19:10.483Z,7.80
2023-04-17T01:21:41.621Z,7.70
2023-04-17T01:24:12.574Z,7.70
2023-04-17T01:26:44.004Z,7.70
2023-04-17T01:29:15.036Z,7.70
2023-04-17T01:31:46.246Z,7.70
2023-04-17T01:34:17.586Z,7.70
2023-04-17T01:36:48.484Z,7.70
2023-04-17T01:39:19.420Z,7.60
2023-04-17T01:41:51.669Z,7.70
2023-04-17T01:44:22.837Z,7.60
2023-04-17T01:46:53.843Z,7.70
2023-04-17T01:49:24.916Z,7.70
2023-04-17T01:51:55.966Z,7.70
2023-04-17T01:54:26.924Z,7.70
2023-04-17T01:56:58.357Z,7.70
2023-04-17T01:59:29.505Z,7.70
2023-04-17T02:02:00.851Z,7.70
2023-04-17T02:04:32.115Z,7.70
2023-04-17T02:07:03.221Z,7.70
2023-04-17T02:09:34.172Z,7.70
2023-04-17T02:12:06.020Z,7.70
2023-04-17T02:14:36.965Z,7.70
2023-04-17T02:17:08.456Z,7.70
2023-04-17T02:19:39.424Z,7.70
2023-04-17T02:22:10.353Z,7.70
2023-04-17T02:24:41.482Z,7.60
2023-04-17T02:27:12.431Z,7.60
2023-04-17T02:29:43.397Z,7.70
2023-04-17T02:32:15.795Z,7.70
2023-04-17T02:34:46.960Z,7.70
2023-04-17T02:37:18.124Z,7.70
2023-04-17T02:39:49.176Z,7.70
2023-04-17T02:42:21.087Z,7.70
2023-04-17T02:44:53.193Z,7.60
2023-04-17T02:47:24.292Z,7.60
2023-04-17T02:49:56.370Z,7.70
2023-04-17T02:52:27.447Z,7.70
2023-04-17T02:54:58.391Z,7.70
2023-04-17T02:57:29.785Z,7.80
2023-04-17T03:00:01.695Z,7.70
2023-04-17T03:02:33.857Z,7.70
2023-04-17T03:05:05.464Z,7.70
2023-04-17T03:07:36.513Z,7.70
2023-04-17T03:10:09.722Z,7.60
2023-04-17T03:12:40.950Z,7.60
2023-04-17T03:15:13.510Z,7.70
2023-04-17T03:17:44.691Z,7.70
2023-04-17T03:20:16.684Z,7.70
2023-04-17T03:22:47.681Z,7.70
2023-04-17T03:25:18.618Z,7.80
2023-04-17T03:27:49.686Z,7.70
2023-04-17T03:30:20.651Z,7.70
2023-04-17T03:32:51.999Z,7.70
2023-04-17T03:35:23.560Z,7.70
2023-04-17T03:37:54.824Z,7.70
2023-04-17T03:40:26.144Z,7.70
2023-04-17T03:42:57.126Z,7.70
2023-04-17T03:45:28.314Z,7.70
2023-04-17T03:47:59.380Z,7.70
2023-04-17T03:50:30.517Z,7.70
2023-04-17T03:53:01.512Z,7.70
2023-04-17T03:55:32.782Z,7.70
2023-04-17T03:58:03.915Z,7.70
2023-04-17T04:00:34.870Z,7.70
2023-04-17T04:03:06.310Z,7.70
2023-04-17T04:05:37.534Z,7.70
2023-04-17T04:08:27.079Z,7.70
2023-04-17T04:10:58.356Z,7.60
2023-04-17T04:13:29.469Z,7.60
2023-04-17T04:16:07.920Z,7.60
2023-04-17T04:18:38.905Z,7.60
2023-04-17T04:21:11.723Z,7.60
2023-04-17T04:23:43.006Z,7.60
2023-04-17T04:28:52.218Z,7.60
2023-04-17T04:31:25.587Z,7.60
2023-04-17T04:33:56.801Z,7.50
2023-04-17T04:36:29.641Z,7.60
2023-04-17T04:39:01.020Z,7.50
2023-04-17T04:41:33.667Z,7.60
2023-04-17T04:44:04.614Z,7.60
2023-04-17T04:46:35.644Z,7.60
2023-04-17T04:49:06.942Z,7.60
2023-04-17T04:54:16.307Z,7.60
2023-04-17T04:56:47.438Z,7.60
2023-04-17T04:59:18.454Z,7.60
2023-04-17T05:01:49.806Z,7.60
2023-04-17T05:04:20.882Z,7.60
2023-04-17T05:06:51.965Z,7.60
2023-04-17T05:09:23.020Z,7.60
2023-04-17T05:11:54.426Z,7.60
2023-04-17T05:14:25.701Z,7.60
2023-04-17T05:16:56.933Z,7.60
2023-04-17T05:19:28.065Z,7.60
2023-04-17T05:21:59.360Z,7.60
2023-04-17T05:24:31.418Z,7.50
2023-04-17T05:27:03.163Z,7.50
2023-04-17T05:29:34.044Z,7.50
2023-04-17T05:32:05.408Z,7.60
2023-04-17T05:34:36.622Z,7.70
2023-04-17T05:37:08.322Z,7.70
2023-04-17T05:39:39.293Z,7.70
2023-04-17T05:42:10.330Z,7.70
2023-04-17T05:44:41.225Z,7.70
2023-04-17T05:47:12.478Z,7.80
2023-04-17T05:49:44.195Z,7.80
2023-04-17T05:52:15.426Z,7.80
2023-04-17T05:54:46.663Z,7.80
2023-04-17T05:57:17.871Z,7.80
2023-04-17T05:59:50.028Z,7.80
2023-04-17T06:02:21.149Z,7.90
2023-04-17T06:04:52.827Z,7.90
2023-04-17T06:07:24.131Z,7.90
2023-04-17T06:09:55.592Z,8.00
2023-04-17T06:12:26.851Z,7.90
2023-04-17T06:14:58.365Z,7.90
2023-04-17T06:17:29.747Z,7.90
2023-04-17T06:20:00.764Z,7.90
2023-04-17T06:22:33.949Z,7.90
2023-04-17T06:25:04.873Z,8.00
2023-04-17T06:27:37.078Z,8.00
2023-04-17T06:30:11.306Z,8.10
2023-04-17T06:32:45.123Z,8.10
2023-04-17T06:35:16.355Z,8.10
2023-04-17T06:38:05.880Z,8.10
2023-04-17T06:40:37.243Z,8.10
2023-04-17T06:43:08.408Z,8.10
2023-04-17T06:45:40.906Z,8.10
2023-04-17T06:48:12.105Z,8.10
2023-04-17T06:50:43.611Z,8.20
2023-04-17T06:53:14.626Z,8.20
2023-04-17T06:55:45.594Z,8.10
2023-04-17T06:58:16.686Z,8.20
2023-04-17T07:00:47.722Z,8.30
2023-04-17T07:03:18.956Z,8.30
2023-04-17T07:05:50.796Z,8.30
2023-04-17T07:08:22.584Z,8.40
2023-04-17T07:10:54.778Z,8.40
2023-04-17T07:13:25.646Z,8.30
2023-04-17T07:15:57.583Z,8.30
2023-04-17T07:18:29.782Z,8.40
2023-04-17T07:21:01.533Z,8.50
2023-04-17T07:23:32.624Z,8.60
2023-04-17T07:26:03.500Z,8.60
2023-04-17T07:28:34.628Z,8.60
2023-04-17T07:31:08.934Z,8.70
2023-04-17T07:33:40.666Z,8.70
2023-04-17T07:36:12.929Z,8.80
2023-04-17T07:38:44.041Z,8.90
2023-04-17T07:41:15.705Z,9.00
2023-04-17T07:43:46.819Z,8.90
2023-04-17T07:46:17.921Z,8.80
2023-04-17T07:48:49.193Z,8.90
2023-04-17T07:51:20.270Z,8.80
2023-04-17T07:53:51.501Z,8.90
2023-04-17T07:56:22.552Z,9.10
2023-04-17T07:58:54.146Z,9.00
2023-04-17T08:01:26.761Z,9.20
2023-04-17T08:03:58.787Z,9.20
2023-04-17T08:06:30.352Z,9.20
2023-04-17T08:09:02.510Z,9.20
2023-04-17T08:11:42.678Z,9.40
2023-04-17T08:14:06.733Z,9.40
2023-04-17T08:16:37.826Z,9.50
2023-04-17T08:19:08.833Z,9.40
2023-04-17T08:21:40.197Z,9.40
2023-04-17T08:24:11.304Z,9.30
2023-04-17T08:26:42.447Z,9.20
2023-04-17T08:29:14.136Z,9.10
2023-04-17T08:31:45.607Z,9.10
2023-04-17T08:34:16.510Z,9.20
2023-04-17T08:36:48.005Z,9.20
2023-04-17T08:39:19.844Z,9.20
2023-04-17T08:41:54.360Z,9.10
2023-04-17T08:44:25.733Z,9.10
2023-04-17T08:46:59.831Z,9.10
2023-04-17T08:49:32.117Z,9.10
2023-04-17T08:52:10.073Z,9.20
2023-04-17T08:54:41.423Z,9.20
2023-04-17T08:57:12.450Z,9.40
2023-04-17T08:59:46.091Z,9.60
2023-04-17T09:02:17.409Z,9.70
2023-04-17T09:04:48.883Z,9.80
2023-04-17T09:07:21.603Z,9.90
2023-04-17T09:09:54.314Z,10.00
2023-04-17T09:12:26.115Z,10.00
2023-04-17T09:14:57.020Z,9.90
2023-04-17T09:20:10.048Z,9.70
2023-04-17T09:22:42.432Z,9.70
2023-04-17T09:25:21.264Z,9.70
2023-04-17T09:27:52.687Z,9.60
2023-04-17T09:30:25.292Z,9.60
2023-04-17T09:33:06.526Z,9.60
2023-04-17T09:35:40.172Z,9.70
2023-04-17T09:38:11.375Z,9.70
2023-04-17T09:40:45.410Z,9.70
2023-04-17T09:43:16.651Z,9.90
2023-04-17T09:45:48.160Z,9.90
2023-04-17T09:48:20.123Z,10.00
2023-04-17T09:50:53.118Z,10.10
2023-04-17T09:53:24.457Z,10.20
2023-04-17T09:55:56.207Z,10.30
2023-04-17T10:01:04.576Z,10.30
2023-04-17T10:03:37.817Z,10.40
2023-04-17T10:06:10.683Z,10.50
2023-04-17T10:08:42.322Z,10.50
2023-04-17T10:11:13.949Z,10.40
2023-04-17T10:13:48.584Z,10.20
2023-04-17T10:16:19.822Z,10.30
2023-04-17T10:18:58.378Z,10.20
2023-04-17T10:21:29.549Z,10.00
2023-04-17T10:24:00.994Z,10.20
2023-04-17T10:26:40.986Z,10.30
2023-04-17T10:29:12.960Z,10.10
2023-04-17T10:32:30.369Z,10.30
2023-04-17T10:35:04.099Z,10.40
2023-04-17T10:38:05.811Z,10.30
2023-04-17T10:40:37.543Z,10.40
2023-04-17T10:43:11.400Z,10.30
2023-04-17T10:46:01.979Z,10.40
2023-04-17T10:48:35.236Z,10.40
2023-04-17T10:51:38.439Z,10.30
2023-04-17T10:54:11.317Z,10.50
2023-04-17T10:56:43.742Z,10.60
2023-04-17T10:59:16.032Z,10.60
2023-04-17T11:02:03.243Z,10.90
2023-04-17T11:04:34.903Z,11.00
2023-04-17T11:07:05.955Z,11.30
2023-04-17T11:09:37.136Z,11.60
2023-04-17T11:12:09.411Z,11.70
2023-04-17T11:14:43.247Z,11.60
2023-04-17T11:17:14.686Z,11.70
2023-04-17T11:19:46.821Z,11.40
2023-04-17T11:22:19.547Z,11.40
2023-04-17T11:24:52.690Z,11.50
2023-04-17T11:27:25.197Z,11.50
2023-04-17T11:29:56.042Z,11.60
2023-04-17T11:32:27.278Z,11.60
2023-04-17T11:34:59.015Z,11.60
2023-04-17T11:37:29.953Z,11.60
2023-04-17T11:40:09.181Z,11.40
2023-04-17T11:42:47.006Z,11.30
2023-04-17T11:45:19.552Z,10.90
2023-04-17T11:47:51.109Z,11.00
2023-04-17T11:50:22.455Z,11.20
2023-04-17T11:52:53.374Z,11.30
2023-04-17T11:55:24.365Z,11.20
2023-04-17T11:57:55.474Z,11.60
2023-04-17T12:00:30.038Z,12.20
2023-04-17T12:03:03.461Z,12.60
2023-04-17T12:05:34.562Z,13.00
2023-04-17T12:08:07.531Z,12.80
2023-04-17T12:10:46.207Z,12.50
2023-04-17T12:13:17.412Z,12.40
2023-04-17T12:15:48.651Z,12.80
2023-04-17T12:18:19.487Z,13.10
2023-04-17T12:20:50.688Z,12.90
2023-04-17T12:23:21.856Z,13.00
2023-04-17T12:25:53.036Z,13.70
2023-04-17T12:28:24.089Z,13.90
2023-04-17T12:30:55.316Z,13.80
2023-04-17T12:33:26.822Z,14.00
2023-04-17T12:35:58.103Z,15.00
2023-04-17T12:38:29.305Z,15.20
2023-04-17T12:41:00.561Z,14.60
2023-04-17T12:43:32.613Z,14.00
2023-04-17T12:46:03.850Z,14.50
2023-04-17T12:48:35.340Z,15.00
2023-04-17T12:51:06.418Z,14.90
2023-04-17T12:53:37.293Z,14.90
2023-04-17T12:56:09.675Z,15.50
2023-04-17T12:58:40.778Z,14.40
2023-04-17T13:01:12.141Z,15.00
2023-04-17T13:03:43.781Z,15.30
2023-04-17T13:06:16.213Z,14.60
2023-04-17T13:08:47.253Z,14.80
2023-04-17T13:11:18.560Z,14.60
2023-04-17T13:13:49.335Z,14.90
2023-04-17T13:16:20.358Z,15.40
2023-04-17T13:18:51.562Z,15.30
2023-04-17T13:21:22.710Z,15.10
2023-04-17T13:23:54.053Z,15.60
2023-04-17T13:26:25.448Z,15.10
2023-04-17T13:28:56.515Z,14.90
2023-04-17T13:31:28.608Z,14.70
2023-04-17T13:33:59.568Z,14.00
2023-04-17T13:36:31.740Z,14.00
2023-04-17T13:39:03.073Z,13.80
2023-04-17T13:41:35.207Z,13.80
2023-04-17T13:44:06.740Z,13.70
2023-04-17T13:46:38.234Z,13.60
2023-04-17T13:49:09.636Z,13.50
2023-04-17T13:51:40.611Z,14.00
2023-04-17T13:54:12.275Z,14.50
2023-04-17T13:56:43.249Z,14.50
2023-04-17T13:59:14.559Z,14.70
2023-04-17T14:01:45.871Z,15.20
2023-04-17T14:04:17.183Z,14.50
2023-04-17T14:06:49.898Z,14.90
2023-04-17T14:09:20.848Z,15.70
2023-04-17T14:11:51.984Z,15.20
2023-04-17T14:14:23.304Z,15.40
2023-04-17T14:16:54.268Z,15.00
2023-04-17T14:19:25.884Z,15.50
2023-04-17T14:21:56.782Z,16.00
2023-04-17T14:24:27.930Z,16.40
2023-04-17T14:26:59.060Z,16.30
2023-04-17T14:29:29.964Z,14.80
2023-04-17T14:32:00.850Z,15.00
2023-04-17T14:34:31.778Z,14.20
2023-04-17T14:37:02.991Z,15.30
2023-04-17T14:39:34.199Z,16.90
2023-04-17T14:42:05.286Z,17.30
2023-04-17T14:44:36.421Z,17.30
2023-04-17T14:47:07.931Z,17.20
2023-04-17T14:49:39.529Z,15.40
2023-04-17T14:52:12.455Z,15.50
2023-04-17T14:54:43.325Z,15.10
2023-04-17T14:57:14.537Z,14.60
2023-04-17T14:59:45.746Z,14.60
2023-04-17T15:02:16.868Z,14.50
2023-04-17T15:04:49.051Z,14.90
2023-04-17T15:07:20.626Z,14.90
2023-04-17T15:09:51.545Z,14.50
2023-04-17T15:12:24.871Z,14.60
2023-04-17T15:14:56.522Z,14.70
2023-04-17T15:17:27.903Z,14.90
2023-04-17T15:20:00.439Z,15.10
2023-04-17T15:22:31.653Z,15.70
2023-04-17T15:25:02.751Z,16.30
2023-04-17T15:27:33.819Z,16.70
2023-04-17T15:30:07.140Z,16.50
2023-04-17T15:32:38.232Z,16.10
2023-04-17T15:35:10.352Z,15.60
2023-04-17T15:37:41.737Z,15.30
2023-04-17T15:40:14.334Z,15.00
2023-04-17T15:42:45.552Z,14.50
2023-04-17T15:45:16.500Z,14.70
2023-04-17T15:47:47.414Z,14.50
2023-04-17T15:50:19.322Z,14.30
2023-04-17T15:52:51.365Z,14.50
2023-04-17T15:55:23.018Z,14.30
2023-04-17T15:57:53.995Z,14.40
2023-04-17T16:00:25.197Z,14.20
2023-04-17T16:02:56.451Z,14.20
2023-04-17T16:05:27.736Z,14.40
2023-04-17T16:07:58.829Z,14.30
2023-04-17T16:13:08.759Z,14.10
2023-04-17T16:15:39.821Z,14.10
2023-04-17T16:18:11.944Z,14.10
2023-04-17T16:20:42.825Z,14.10
2023-04-17T16:23:13.529Z,14.20
2023-04-17T16:25:44.908Z,14.20
2023-04-17T16:28:15.871Z,14.30
2023-04-17T16:30:48.024Z,14.50
2023-04-17T16:33:19.119Z,14.70
2023-04-17T16:35:50.324Z,14.50
2023-04-17T16:38:21.308Z,14.30
2023-04-17T16:40:53.742Z,14.20
2023-04-17T16:43:24.741Z,14.20
2023-04-17T16:45:56.170Z,14.10
2023-04-17T16:48:27.654Z,14.00
2023-04-17T16:51:03.058Z,13.90
2023-04-17T16:56:12.682Z,14.00
2023-04-17T16:58:43.728Z,14.00
2023-04-17T17:01:15.112Z,14.00
2023-04-17T17:03:46.704Z,13.80
2023-04-17T17:06:18.263Z,13.70
2023-04-17T17:08:49.686Z,13.70
2023-04-17T17:11:22.162Z,13.50
2023-04-17T17:13:54.671Z,13.50
2023-04-17T17:16:25.727Z,13.30
2023-04-17T17:18:56.842Z,13.20
2023-04-17T17:21:28.401Z,13.00
2023-04-17T17:23:59.715Z,13.00
2023-04-17T17:26:31.076Z,13.00
2023-04-17T17:29:02.136Z,12.80
2023-04-17T17:31:34.127Z,12.70
2023-04-17T17:34:22.594Z,12.80
2023-04-17T17:36:37.685Z,12.70
2023-04-17T17:39:08.970Z,12.60
2023-04-17T17:41:40.204Z,12.60
2023-04-17T17:44:11.750Z,12.50
2023-04-17T17:46:43.042Z,12.50
2023-04-17T17:49:14.139Z,12.40
2023-04-17T17:51:45.509Z,12.40
2023-04-17T17:54:16.397Z,12.40
2023-04-17T17:56:47.567Z,12.40
2023-04-17T17:59:19.063Z,12.40
2023-04-17T18:01:50.604Z,12.40
2023-04-17T18:04:21.761Z,12.30
2023-04-17T18:06:53.020Z,12.20
2023-04-17T18:09:23.982Z,12.10
2023-04-17T18:11:54.776Z,12.00
2023-04-17T18:14:25.711Z,11.70
2023-04-17T18:16:56.614Z,11.60
2023-04-17T18:19:27.912Z,11.60
2023-04-17T18:21:58.901Z,11.50
2023-04-17T18:24:30.782Z,11.40
2023-04-17T18:27:02.505Z,11.40
2023-04-17T18:29:34.248Z,11.30
2023-04-17T18:32:05.247Z,11.30
2023-04-17T18:34:54.705Z,11.20
2023-04-17T18:37:25.968Z,11.20
2023-04-17T18:39:56.821Z,11.40
2023-04-17T18:42:28.184Z,11.50
2023-04-17T18:44:59.407Z,11.40
2023-04-17T18:47:30.388Z,11.20
2023-04-17T18:50:01.614Z,11.00
2023-04-17T18:52:35.199Z,10.90
2023-04-17T18:55:07.342Z,10.90
2023-04-17T18:57:38.336Z,11.00
2023-04-17T19:00:12.425Z,11.00
2023-04-17T19:02:44.503Z,10.90
2023-04-17T19:05:16.207Z,10.90
2023-04-17T19:07:47.134Z,10.90
2023-04-17T19:10:18.271Z,10.80
2023-04-17T19:12:49.434Z,10.70
2023-04-17T19:15:21.911Z,10.70
2023-04-17T19:17:54.439Z,10.80
2023-04-17T19:20:44.538Z,10.70
2023-04-17T19:23:15.665Z,10.50
2023-04-17T19:25:48.330Z,10.40
2023-04-17T19:28:19.257Z,10.50
2023-04-17T19:30:50.399Z,10.60
2023-04-17T19:33:22.877Z,10.60
2023-04-17T19:35:53.822Z,10.30
2023-04-17T19:38:25.512Z,10.40
2023-04-17T19:41:15.041Z,10.40
2023-04-17T19:43:46.681Z,10.50
2023-04-17T19:46:18.426Z,10.50
2023-04-17T19:48:51.034Z,10.30
2023-04-17T19:51:22.285Z,10.30
2023-04-17T19:53:53.973Z,10.50
2023-04-17T19:56:25.091Z,10.70
2023-04-17T19:58:56.500Z,10.60
2023-04-17T20:01:27.522Z,10.40
2023-04-17T20:03:59.547Z,10.60
2023-04-17T20:06:31.281Z,10.60
2023-04-17T20:09:03.538Z,10.40
2023-04-17T20:11:34.882Z,10.30
2023-04-17T20:14:06.748Z,10.50
2023-04-17T20:16:37.869Z,10.60
2023-04-17T20:19:11.390Z,10.60
2023-04-17T20:21:42.357Z,10.40
2023-04-17T20:26:58.238Z,10.30
2023-04-17T20:29:30.813Z,10.40
2023-04-17T20:32:20.608Z,10.50
2023-04-17T20:34:51.657Z,10.30
2023-04-17T20:37:23.965Z,10.10
2023-04-17T20:39:55.120Z,10.20
2023-04-17T20:42:26.094Z,10.30
2023-04-17T20:44:57.093Z,10.50
2023-04-17T20:47:28.079Z,10.70
2023-04-17T20:49:59.028Z,10.80
2023-04-17T20:52:30.468Z,10.80
2023-04-17T20:55:01.886Z,10.60
2023-04-17T20:57:33.668Z,10.50
2023-04-17T21:00:04.744Z,10.50
2023-04-17T21:02:36.905Z,10.50
2023-04-17T21:05:09.264Z,10.60
2023-04-17T21:07:41.186Z,10.70
2023-04-17T21:10:12.570Z,10.80
2023-04-17T21:12:43.613Z,10.80
2023-04-17T21:15:14.876Z,10.80
2023-04-17T21:17:47.834Z,10.80
2023-04-17T21:20:19.034Z,10.80
2023-04-17T21:22:50.538Z,10.80
2023-04-17T21:25:21.589Z,10.80
2023-04-17T21:27:52.560Z,10.70
2023-04-17T21:30:26.590Z,10.70
2023-04-17T21:32:56.853Z,10.70
2023-04-17T21:35:27.947Z,10.60
2023-04-17T21:37:58.726Z,10.50
2023-04-17T21:40:33.398Z,10.40
2023-04-17T21:43:02.935Z,10.40
2023-04-17T21:45:34.869Z,10.30
2023-04-17T21:48:05.858Z,10.30
2023-04-17T21:50:36.536Z,10.20
2023-04-17T21:53:07.769Z,10.10
2023-04-17T21:55:39.775Z,10.10
2023-04-17T21:58:11.017Z,10.10
2023-04-17T22:00:43.157Z,10.00
2023-04-17T22:03:14.119Z,9.90
2023-04-17T22:05:45.240Z,10.00
2023-04-17T22:08:17.339Z,10.10
2023-04-17T22:10:48.359Z,10.10
2023-04-17T22:13:19.357Z,10.10
2023-04-17T22:15:51.564Z,10.10
2023-04-17T22:18:22.669Z,10.00
2023-04-17T22:20:53.752Z,9.90
2023-04-17T22:23:24.845Z,9.90
2023-04-17T22:25:55.836Z,9.90
2023-04-17T22:28:28.258Z,9.80
2023-04-17T22:30:59.769Z,9.80
2023-04-17T22:33:30.837Z,9.80
2023-04-17T22:36:01.884Z,9.80
2023-04-17T22:38:32.887Z,9.70
2023-04-17T22:41:05.640Z,9.70
2023-04-17T22:43:36.697Z,9.60
2023-04-17T22:46:07.665Z,9.60
2023-04-17T22:48:40.630Z,9.50
2023-04-17T22:51:12.770Z,9.50
2023-04-17T22:53:44.043Z,9.50
2023-04-17T22:56:15.256Z,9.50
2023-04-17T22:58:46.214Z,9.50
2023-04-17T23:01:17.320Z,9.50
2023-04-17T23:03:48.271Z,9.50
2023-04-17T23:06:21.132Z,9.50
2023-04-17T23:08:52.297Z,9.40
2023-04-17T23:11:23.525Z,9.30
2023-04-17T23:13:54.661Z,9.20
2023-04-17T23:16:25.831Z,9.10
2023-04-17T23:18:57.161Z,9.10
2023-04-17T23:21:28.377Z,9.10
2023-04-17T23:23:59.336Z,9.00
2023-04-17T23:26:30.449Z,9.00
2023-04-17T23:29:01.395Z,9.00
2023-04-17T23:31:32.422Z,9.10
2023-04-17T23:34:03.555Z,9.20
2023-04-17T23:36:34.424Z,9.20
2023-04-17T23:39:06.503Z,9.20
2023-04-17T23:41:37.543Z,9.00
2023-04-17T23:44:09.589Z,8.90
2023-04-17T23:46:40.670Z,8.80
2023-04-17T23:49:11.896Z,8.70
2023-04-17T23:51:43.007Z,8.60
2023-04-17T23:54:14.073Z,8.60
2023-04-17T23:56:45.294Z,8.50
2023-04-17T23:59:16.584Z,8.50
